Accueil
METAR-TAF:

METAR-TAF

Aéroports :

Boscombe Down, Angleterre

latitude: 51-10N, longitude: 001-45W, altitude: 124 m

Observation

Le bulletin a été fait il y a 1 heure et 21 minutes, à 20:50 UTC
Vent 8 kt de ouest/nord-ouest
Température 11°C
Humidité 87%
Pression 1031 hPa
Visibilité 10 km ou plus

METAR: EGDM 232050Z AUTO 29008KT 9999 NCD 11/09 Q1031

Heure: 23:11 (22:11 UTC)

Prévision

Le bulletin a été fait il y a 8 heures et 23 minutes, à 13:48 UTC
Prévision valable du 23 à 15 UTC au 23 à 18 UTC
Vent 12 kt de ouest/nord-ouest
Visibilité 10 km ou plus
pas de nuages en-dessous de 1500 mètres et pas de cumulonimbus.

TAF: EGDM 231348Z 2315/2318 30012KT CAVOK

Observations et prévisions météorologiques de plus de 4000 aéroports (messages METAR et TAF).

Les stations disponibles sont représentées par des disques jaunes et rouges sur la carte.

Passer la souris dessus pour voir le nom de la station.

Cliquer dessus pour voir les observations et prévisions météorologiques.

Pour changer de carte: cliquez sur les boutons verts avec une croix noire pour zoomer, sur le bouton vert avec un tiret pour effectuer un zoom arrière, ou sur les flèches vertes pour les cartes adjacentes.


METAR-TAF: